createdAt,value
2022-10-05T00:03:39.295Z,65.89
2022-10-05T00:08:41.981Z,65.86
2022-10-05T00:13:44.714Z,65.78
2022-10-05T00:18:50.829Z,65.94
2022-10-05T00:23:56.391Z,65.65
2022-10-05T00:28:59.392Z,65.38
2022-10-05T00:34:02.376Z,65.15
2022-10-05T00:39:05.258Z,65.04
2022-10-05T00:44:17.143Z,65.36
2022-10-05T00:49:33.396Z,65.34
2022-10-05T00:54:44.742Z,65.28
2022-10-05T01:00:05.872Z,65.39
2022-10-05T01:05:14.612Z,65.12
2022-10-05T01:10:20.185Z,65.17
2022-10-05T01:15:28.699Z,64.82
2022-10-05T01:20:39.998Z,64.83
2022-10-05T01:25:50.279Z,64.46
2022-10-05T01:31:09.130Z,64.64
2022-10-05T01:36:17.536Z,63.91
2022-10-05T01:41:41.733Z,64.04
2022-10-05T01:47:03.592Z,63.82
2022-10-05T01:52:09.263Z,64.21
2022-10-05T01:57:14.819Z,64.16
2022-10-05T02:02:19.671Z,64.03
2022-10-05T02:07:37.576Z,63.73
2022-10-05T02:12:40.895Z,63.54
2022-10-05T02:17:49.400Z,63.64
2022-10-05T02:22:56.711Z,62.96
2022-10-05T02:28:14.049Z,63.29
2022-10-05T02:33:32.758Z,63.59
2022-10-05T02:38:54.596Z,64.67
2022-10-05T02:44:00.389Z,65.19
2022-10-05T02:49:32.534Z,65.95
2022-10-05T02:54:47.564Z,67.16
2022-10-05T03:00:01.410Z,68.07
2022-10-05T03:05:15.597Z,68.61
2022-10-05T03:10:42.053Z,69.65
2022-10-05T03:16:02.107Z,70.15
2022-10-05T03:21:27.806Z,70.60
2022-10-05T03:26:53.170Z,71.64
2022-10-05T03:32:14.381Z,72.69
2022-10-05T03:37:39.836Z,73.66
2022-10-05T03:42:48.509Z,74.10
2022-10-05T03:48:05.864Z,74.71
2022-10-05T03:53:21.679Z,75.46
2022-10-05T03:58:33.945Z,76.51
2022-10-05T04:03:44.545Z,77.51
2022-10-05T04:08:55.551Z,78.17
2022-10-05T04:14:23.554Z,78.33
2022-10-05T04:19:33.229Z,79.33
2022-10-05T04:24:41.262Z,80.07
2022-10-05T04:29:51.949Z,80.89
2022-10-05T04:35:28.753Z,81.54
2022-10-05T04:40:49.823Z,81.83
2022-10-05T04:46:04.524Z,82.72
2022-10-05T04:51:19.967Z,83.25
2022-10-05T04:56:30.748Z,83.25
2022-10-05T05:02:07.865Z,84.32
2022-10-05T05:07:45.474Z,84.42
2022-10-05T05:12:59.762Z,84.80
2022-10-05T05:18:26.888Z,85.34
2022-10-05T05:23:43.142Z,85.89
2022-10-05T05:29:02.327Z,86.15
2022-10-05T05:34:17.262Z,86.92
2022-10-05T05:39:28.722Z,87.08
2022-10-05T05:44:39.015Z,87.09
2022-10-05T05:49:52.164Z,87.21
2022-10-05T05:55:14.114Z,87.37
2022-10-05T06:00:22.334Z,87.71
2022-10-05T06:06:02.777Z,87.34
2022-10-05T06:11:23.511Z,87.59
2022-10-05T06:16:41.434Z,87.83
2022-10-05T06:22:17.672Z,87.78
2022-10-05T06:27:21.265Z,87.43
2022-10-05T06:32:36.846Z,87.89
2022-10-05T06:37:58.558Z,87.67
2022-10-05T06:43:36.068Z,88.10
2022-10-05T06:49:29.805Z,88.17
2022-10-05T06:55:20.651Z,88.25
2022-10-05T07:00:40.842Z,88.32
2022-10-05T07:06:00.481Z,88.10
2022-10-05T07:11:36.389Z,87.78
2022-10-05T07:17:08.139Z,88.21
2022-10-05T07:22:52.593Z,88.01
2022-10-05T07:28:01.364Z,88.22
2022-10-05T07:33:14.392Z,88.64
2022-10-05T07:38:22.196Z,88.32
2022-10-05T07:44:01.145Z,88.91
2022-10-05T07:49:32.088Z,89.10
2022-10-05T07:55:10.370Z,88.87
2022-10-05T08:00:20.789Z,88.26
2022-10-05T08:05:30.525Z,88.41
2022-10-05T08:10:55.640Z,87.88
2022-10-05T08:15:58.665Z,87.52
2022-10-05T08:21:01.722Z,87.59
2022-10-05T08:26:25.170Z,87.97
2022-10-05T08:31:32.129Z,87.55
2022-10-05T08:36:40.951Z,87.49
2022-10-05T08:42:05.036Z,87.84
2022-10-05T08:47:49.606Z,87.71
2022-10-05T08:53:32.160Z,87.72
2022-10-05T08:58:54.629Z,87.55
2022-10-05T09:04:20.638Z,86.86
2022-10-05T09:09:29.355Z,86.68
2022-10-05T09:15:01.504Z,86.10
2022-10-05T09:20:47.372Z,86.05
2022-10-05T09:26:30.580Z,85.92
2022-10-05T09:32:05.771Z,85.66
2022-10-05T09:37:41.094Z,85.68
2022-10-05T09:43:11.565Z,85.81
2022-10-05T09:48:41.245Z,85.71
2022-10-05T09:54:02.628Z,85.62
2022-10-05T09:59:23.335Z,86.21
2022-10-05T10:05:26.114Z,86.95
2022-10-05T10:11:02.343Z,87.11
2022-10-05T10:16:46.061Z,87.59
2022-10-05T10:21:50.126Z,88.26
2022-10-05T10:27:16.911Z,87.60
2022-10-05T10:32:47.321Z,88.16
2022-10-05T10:38:05.436Z,89.10
2022-10-05T10:43:26.934Z,88.19
2022-10-05T10:48:29.501Z,88.82
2022-10-05T10:53:50.553Z,88.79
2022-10-05T10:59:11.860Z,88.89
2022-10-05T11:04:54.241Z,89.03
2022-10-05T11:10:00.155Z,89.28
2022-10-05T11:15:40.040Z,89.36
2022-10-05T11:20:48.624Z,89.33
2022-10-05T11:26:12.905Z,89.13
2022-10-05T11:31:31.646Z,88.57
2022-10-05T11:37:11.980Z,88.93
2022-10-05T11:42:45.547Z,89.68
2022-10-05T11:48:17.324Z,89.74
2022-10-05T11:53:27.455Z,89.54
2022-10-05T11:58:42.303Z,89.84
2022-10-05T12:04:14.640Z,89.12
2022-10-05T12:09:20.313Z,90.62
2022-10-05T12:14:34.386Z,91.92
2022-10-05T12:19:41.554Z,91.53
2022-10-05T12:25:06.634Z,90.47
2022-10-05T12:30:12.079Z,91.58
2022-10-05T12:35:53.784Z,90.85
2022-10-05T12:41:18.243Z,90.44
2022-10-05T12:46:42.287Z,90.08
2022-10-05T12:51:56.602Z,91.05
2022-10-05T12:57:38.566Z,90.59
2022-10-05T13:02:49.363Z,90.29
2022-10-05T13:08:18.307Z,89.78
2022-10-05T13:13:53.656Z,89.07
2022-10-05T13:19:21.075Z,89.08
2022-10-05T13:24:32.085Z,90.00
2022-10-05T13:29:58.957Z,90.78
2022-10-05T13:35:35.575Z,91.46
2022-10-05T13:40:47.099Z,91.69
2022-10-05T13:45:57.268Z,91.72
2022-10-05T13:51:00.197Z,91.96
2022-10-05T13:56:23.108Z,92.15
2022-10-05T14:01:51.969Z,91.86
2022-10-05T14:06:54.795Z,92.45
2022-10-05T14:12:03.743Z,92.25
2022-10-05T14:17:33.799Z,93.01
2022-10-05T14:22:42.549Z,93.56
2022-10-05T14:28:04.692Z,93.37
2022-10-05T14:33:15.646Z,93.40
2022-10-05T14:38:32.701Z,93.88
2022-10-05T14:43:35.978Z,94.44
2022-10-05T14:48:42.815Z,94.83
2022-10-05T14:53:49.359Z,94.63
2022-10-05T14:59:14.678Z,94.21
2022-10-05T15:04:53.192Z,94.23
2022-10-05T15:10:57.623Z,94.78
2022-10-05T15:16:00.267Z,94.95
2022-10-05T15:21:21.962Z,95.21
2022-10-05T15:27:10.535Z,95.14
2022-10-05T15:32:31.650Z,94.99
2022-10-05T15:37:43.069Z,95.29
2022-10-05T15:42:45.688Z,94.81
2022-10-05T15:48:20.525Z,95.62
2022-10-05T15:53:35.014Z,96.54
2022-10-05T15:58:56.227Z,96.12
2022-10-05T16:04:18.798Z,96.78
2022-10-05T16:09:56.842Z,95.77
2022-10-05T16:15:16.683Z,96.21
2022-10-05T16:20:36.097Z,97.63
2022-10-05T16:25:47.704Z,97.23
2022-10-05T16:30:50.375Z,97.16
2022-10-05T16:36:16.587Z,97.31
2022-10-05T16:41:43.316Z,97.92
2022-10-05T16:46:47.181Z,97.61
2022-10-05T16:52:05.370Z,97.38
2022-10-05T16:57:28.802Z,97.83
2022-10-05T17:02:41.950Z,98.09
2022-10-05T17:07:47.616Z,98.10
2022-10-05T17:12:59.465Z,98.66
2022-10-05T17:18:20.332Z,98.26
2022-10-05T17:23:31.627Z,98.72
2022-10-05T17:28:42.636Z,98.30
2022-10-05T17:34:00.472Z,98.63
2022-10-05T17:39:49.506Z,98.74
2022-10-05T17:44:58.755Z,98.78
2022-10-05T17:50:19.773Z,99.38
2022-10-05T17:55:39.707Z,99.72
2022-10-05T18:01:03.097Z,100.00
2022-10-05T18:06:24.703Z,100.00
2022-10-05T18:11:35.696Z,100.00
2022-10-05T18:17:00.447Z,100.00
2022-10-05T18:22:05.348Z,100.00
2022-10-05T18:27:26.410Z,100.00
2022-10-05T18:32:53.935Z,100.00
2022-10-05T18:38:33.141Z,100.00
2022-10-05T18:43:42.930Z,100.00
2022-10-05T18:48:50.193Z,100.00
2022-10-05T18:54:18.815Z,100.00
2022-10-05T18:59:40.219Z,100.00
2022-10-05T19:10:56.139Z,100.00
2022-10-05T19:16:18.965Z,100.00
2022-10-05T19:21:59.249Z,100.00
2022-10-05T19:27:14.044Z,100.00
2022-10-05T19:32:58.351Z,100.00
2022-10-05T19:38:16.224Z,100.00
2022-10-05T19:43:46.787Z,100.00
2022-10-05T19:48:51.095Z,100.00
2022-10-05T19:53:56.335Z,100.00
2022-10-05T19:59:11.477Z,100.00
2022-10-05T20:04:34.574Z,100.00
2022-10-05T20:10:00.805Z,100.00
2022-10-05T20:15:26.856Z,100.00
2022-10-05T20:20:36.563Z,100.00
2022-10-05T20:25:40.654Z,100.00
2022-10-05T20:30:43.298Z,100.00
2022-10-05T20:35:46.274Z,100.00
2022-10-05T20:40:48.968Z,100.00
2022-10-05T20:45:54.102Z,100.00
2022-10-05T20:50:56.576Z,100.00
2022-10-05T20:56:02.751Z,100.00
2022-10-05T21:01:20.799Z,100.00
2022-10-05T21:06:27.870Z,100.00
2022-10-05T21:11:30.737Z,100.00
2022-10-05T21:16:37.096Z,100.00
2022-10-05T21:21:40.615Z,100.00
2022-10-05T21:26:44.672Z,100.00
2022-10-05T21:31:47.514Z,100.00
2022-10-05T21:36:50.299Z,100.00
2022-10-05T21:41:53.231Z,100.00
2022-10-05T21:46:56.944Z,100.00
2022-10-05T21:52:00.947Z,100.00
2022-10-05T21:57:03.821Z,100.00
2022-10-05T22:02:06.617Z,100.00
2022-10-05T22:07:20.077Z,100.00
2022-10-05T22:12:23.926Z,100.00
2022-10-05T22:17:31.423Z,100.00
2022-10-05T22:22:34.163Z,100.00
2022-10-05T22:27:37.270Z,100.00
2022-10-05T22:32:39.987Z,100.00
2022-10-05T22:37:42.646Z,100.00
2022-10-05T22:42:45.254Z,100.00
2022-10-05T22:47:48.437Z,100.00
2022-10-05T22:52:52.799Z,100.00
2022-10-05T22:57:55.747Z,100.00
2022-10-05T23:02:58.554Z,100.00
2022-10-05T23:08:02.667Z,100.00
2022-10-05T23:13:05.350Z,100.00
2022-10-05T23:18:08.074Z,100.00
2022-10-05T23:23:11.237Z,100.00
2022-10-05T23:28:14.016Z,100.00
2022-10-05T23:33:16.805Z,100.00
2022-10-05T23:38:19.460Z,100.00
2022-10-05T23:43:22.806Z,100.00
2022-10-05T23:48:27.197Z,99.28
2022-10-05T23:53:30.155Z,98.88
2022-10-05T23:58:32.932Z,98.41
